createdAt,value
2019-04-30T00:04:41.041Z,56
2019-04-30T00:09:29.522Z,56.6
2019-04-30T00:14:17.057Z,57.1
2019-04-30T00:19:06.022Z,57.5
2019-04-30T00:23:53.489Z,58
2019-04-30T00:28:44.394Z,58.4
2019-04-30T00:33:35.330Z,58.4
2019-04-30T00:38:22.555Z,58.4
2019-04-30T00:43:11.819Z,58.9
2019-04-30T00:47:59.417Z,59.1
2019-04-30T00:52:46.977Z,59.4
2019-04-30T00:57:38.818Z,60
2019-04-30T01:02:32.083Z,60.3
2019-04-30T01:07:19.722Z,60.6
2019-04-30T01:12:06.566Z,61.3
2019-04-30T01:16:53.403Z,61.4
2019-04-30T01:26:33.685Z,62.8
2019-04-30T01:31:21.152Z,63
2019-04-30T01:36:13.122Z,64.2
2019-04-30T01:41:01.437Z,64.8
2019-04-30T01:45:48.729Z,65.6
2019-04-30T01:49:49.636Z,68.7
2019-04-30T01:50:05.327Z,68.1
2019-04-30T01:50:20.905Z,67.4
2019-04-30T01:50:38.725Z,65.9
2019-04-30T01:50:58.677Z,65.3
2019-04-30T01:52:03.681Z,57
2019-04-30T01:56:50.702Z,46.6
2019-04-30T02:01:39.041Z,48.4
2019-04-30T02:06:25.864Z,51.7
2019-04-30T02:11:13.284Z,55.3
2019-04-30T02:16:00.689Z,58
2019-04-30T02:20:49.644Z,60.6
2019-04-30T02:25:37.125Z,62.5
2019-04-30T02:30:23.900Z,65.4
2019-04-30T02:34:24.542Z,67.4
2019-04-30T02:34:42.323Z,67.9
2019-04-30T02:34:59.896Z,68
2019-04-30T02:35:15.537Z,69
2019-04-30T02:35:31.091Z,69.8
2019-04-30T02:35:46.599Z,70.5
2019-04-30T02:36:03.781Z,70.8
2019-04-30T02:36:19.909Z,71
2019-04-30T02:36:35.527Z,68.9
2019-04-30T02:36:51.084Z,67.6
2019-04-30T02:37:09.560Z,67.1
2019-04-30T02:37:25.508Z,66.1
2019-04-30T02:38:29.322Z,56.3
2019-04-30T02:43:20.320Z,47.1
2019-04-30T02:48:11.418Z,49.2
2019-04-30T02:53:00.232Z,53.4
2019-04-30T02:57:50.273Z,57.5
2019-04-30T03:02:39.456Z,61.4
2019-04-30T03:07:29.377Z,65
2019-04-30T03:11:31.288Z,68.3
2019-04-30T03:11:49.817Z,67.6
2019-04-30T03:12:05.820Z,67.3
2019-04-30T03:12:21.460Z,66.6
2019-04-30T03:12:40.252Z,64.7
2019-04-30T03:13:43.163Z,56.4
2019-04-30T03:18:30.590Z,48.6
2019-04-30T03:23:19.573Z,51.3
2019-04-30T03:28:09.732Z,55.3
2019-04-30T03:33:02.097Z,60
2019-04-30T03:37:50.627Z,64.3
2019-04-30T03:41:51.168Z,67.3
2019-04-30T03:42:06.777Z,67.3
2019-04-30T03:42:22.305Z,68.2
2019-04-30T03:42:39.646Z,68.6
2019-04-30T03:42:55.364Z,68.8
2019-04-30T03:43:11.054Z,68.6
2019-04-30T03:43:26.602Z,68.8
2019-04-30T03:43:42.127Z,68.4
2019-04-30T03:44:16.082Z,67.7
2019-04-30T03:44:33.895Z,65.5
2019-04-30T03:44:49.743Z,65.1
2019-04-30T03:45:52.216Z,57.1
2019-04-30T03:50:50.226Z,48.2
2019-04-30T03:55:42.353Z,51.8
2019-04-30T04:00:29.984Z,56.5
2019-04-30T04:05:19.998Z,60.9
2019-04-30T04:10:10.062Z,64.9
2019-04-30T04:14:11.012Z,70.2
2019-04-30T04:14:26.531Z,70.2
2019-04-30T04:14:42.045Z,68.4
2019-04-30T04:15:03.239Z,68.1
2019-04-30T04:15:20.050Z,67.5
2019-04-30T04:15:35.707Z,66.3
2019-04-30T04:15:51.337Z,65.1
2019-04-30T04:16:53.870Z,57.5
2019-04-30T04:21:40.705Z,48
2019-04-30T04:26:29.813Z,50.8
2019-04-30T04:31:19.093Z,55.4
2019-04-30T04:36:09.261Z,60
2019-04-30T04:40:56.616Z,63.6
2019-04-30T04:44:59.481Z,70.2
2019-04-30T04:45:15.352Z,70.5
2019-04-30T04:45:30.871Z,70.8
2019-04-30T04:45:49.461Z,71.4
2019-04-30T04:46:05.549Z,70.9
2019-04-30T04:46:21.130Z,68.7
2019-04-30T04:46:36.651Z,68
2019-04-30T04:46:52.273Z,66.9
2019-04-30T04:47:09.905Z,66.4
2019-04-30T04:47:30.494Z,65.9
2019-04-30T04:48:32.723Z,56.8
2019-04-30T04:53:20.610Z,48.7
2019-04-30T04:58:09.734Z,51.7
2019-04-30T05:03:01.004Z,55.8
2019-04-30T05:07:48.662Z,60
2019-04-30T05:12:37.973Z,63.9
2019-04-30T05:16:40.343Z,66.6
2019-04-30T05:16:55.852Z,66.5
2019-04-30T05:17:11.386Z,67.1
2019-04-30T05:17:26.995Z,67.6
2019-04-30T05:17:42.603Z,68.7
2019-04-30T05:17:59.216Z,70
2019-04-30T05:18:14.999Z,70.7
2019-04-30T05:18:30.627Z,71.1
2019-04-30T05:18:46.155Z,70.8
2019-04-30T05:19:01.706Z,70.6
2019-04-30T05:19:18.682Z,70
2019-04-30T05:19:34.480Z,68.3
2019-04-30T05:19:50.050Z,68.3
2019-04-30T05:20:05.791Z,66.8
2019-04-30T05:20:21.341Z,64.8
2019-04-30T05:21:23.441Z,58.8
2019-04-30T05:26:11.140Z,49.2
2019-04-30T05:30:59.397Z,51.4
2019-04-30T05:35:46.943Z,55.6
2019-04-30T05:40:33.963Z,59.5
2019-04-30T05:45:20.721Z,62.4
2019-04-30T05:50:09.113Z,65.9
2019-04-30T05:54:10.322Z,71.8
2019-04-30T05:54:25.983Z,70.8
2019-04-30T05:54:41.673Z,69.7
2019-04-30T05:54:58.501Z,67.1
2019-04-30T05:55:15.689Z,67
2019-04-30T05:55:31.249Z,66
2019-04-30T05:55:46.792Z,65.7
2019-04-30T05:56:03.292Z,61.9
2019-04-30T05:57:05.517Z,55.4
2019-04-30T06:01:54.542Z,47.7
2019-04-30T06:06:44.025Z,50.5
2019-04-30T06:11:32.673Z,53.6
2019-04-30T06:16:19.611Z,57.6
2019-04-30T06:21:06.562Z,60
2019-04-30T06:25:57.310Z,60.6
2019-04-30T06:30:49.294Z,62.2
2019-04-30T06:35:36.914Z,64.5
2019-04-30T06:40:24.113Z,65.2
2019-04-30T06:45:11.343Z,65.9
2019-04-30T06:49:12.111Z,69
2019-04-30T06:49:28.849Z,69.5
2019-04-30T06:49:44.459Z,69.5
2019-04-30T06:50:01.336Z,68.7
2019-04-30T06:50:19.207Z,65.8
2019-04-30T06:51:22.403Z,58.3
2019-04-30T06:56:10.544Z,48.1
2019-04-30T07:00:59.568Z,48.5
2019-04-30T07:05:48.784Z,52.1
2019-04-30T07:10:37.227Z,52.7
2019-04-30T07:15:25.784Z,55.3
2019-04-30T07:20:14.020Z,56.9
2019-04-30T07:25:01.402Z,58.5
2019-04-30T07:29:49.630Z,58.1
2019-04-30T07:34:37.265Z,60.9
2019-04-30T07:39:31.297Z,59.1
2019-04-30T07:44:31.037Z,60
2019-04-30T07:49:22.862Z,58
2019-04-30T07:54:09.594Z,59.5
2019-04-30T07:58:56.833Z,58.7
2019-04-30T08:03:44.301Z,58
2019-04-30T08:08:32.194Z,57.2
2019-04-30T08:13:21.751Z,55
2019-04-30T08:18:09.963Z,54.3
2019-04-30T08:22:57.011Z,53.5
2019-04-30T08:27:43.734Z,51.9
2019-04-30T08:32:32.962Z,50.9
2019-04-30T08:37:20.642Z,50.8
2019-04-30T08:42:09.565Z,48.2
2019-04-30T08:46:56.586Z,50.5
2019-04-30T08:51:43.777Z,47.6
2019-04-30T08:56:31.633Z,47.3
2019-04-30T09:01:19.684Z,45.8
2019-04-30T09:06:09.317Z,44.9
2019-04-30T09:10:56.505Z,42.7
2019-04-30T09:15:44.448Z,41.8
2019-04-30T09:20:32.501Z,43.2
2019-04-30T09:25:20.141Z,42.1
2019-04-30T09:30:10.208Z,39.8
2019-04-30T09:34:58.754Z,39.2
2019-04-30T09:39:46.176Z,40.1
2019-04-30T09:44:33.130Z,37.7
2019-04-30T09:49:20.456Z,38
2019-04-30T09:54:11.895Z,37.1
2019-04-30T09:58:59.932Z,34.2
2019-04-30T10:03:47.070Z,35.6
2019-04-30T10:08:46.118Z,35.3
2019-04-30T10:13:37.090Z,34.8
2019-04-30T10:18:25.320Z,34.6
2019-04-30T10:23:12.365Z,35.5
2019-04-30T10:27:59.784Z,34.6
2019-04-30T10:32:50.032Z,33.8
2019-04-30T10:37:38.753Z,31.9
2019-04-30T10:42:26.440Z,33
2019-04-30T10:47:14.261Z,34.2
2019-04-30T10:52:01.706Z,31.4
2019-04-30T10:56:51.424Z,32.1
2019-04-30T11:01:39.242Z,31.4
2019-04-30T11:06:28.469Z,30.1
2019-04-30T11:11:15.868Z,29.2
2019-04-30T11:16:12.041Z,28.6
2019-04-30T11:21:00.656Z,29.2
2019-04-30T11:25:50.427Z,28.7
2019-04-30T11:30:39.440Z,28.4
2019-04-30T11:35:27.248Z,26.2
2019-04-30T11:40:14.442Z,27.2
2019-04-30T11:45:02.160Z,27.1
2019-04-30T11:49:49.417Z,26
2019-04-30T11:54:48.246Z,27.2
2019-04-30T11:59:39.539Z,25.8
2019-04-30T12:04:29.697Z,25.2
2019-04-30T12:09:18.500Z,25.8
2019-04-30T12:14:07.793Z,24.5
2019-04-30T12:18:55.404Z,25.2
2019-04-30T12:23:42.723Z,25
2019-04-30T12:28:30.541Z,22.8
2019-04-30T12:33:19.176Z,23.3
2019-04-30T12:38:06.226Z,23.5
2019-04-30T12:42:53.211Z,23.5
2019-04-30T12:47:40.510Z,22.8
2019-04-30T12:52:29.573Z,22.2
2019-04-30T12:57:19.203Z,22.1
2019-04-30T13:02:08.999Z,21.7
2019-04-30T13:06:56.589Z,21.1
2019-04-30T13:11:45.041Z,21.7
2019-04-30T13:16:33.318Z,21.9
2019-04-30T13:21:20.268Z,20.3
2019-04-30T13:26:09.195Z,22
2019-04-30T13:30:56.279Z,20.4
2019-04-30T13:35:45.651Z,20.1
2019-04-30T13:40:32.852Z,20.4
2019-04-30T13:45:20.801Z,20.3
2019-04-30T13:50:09.314Z,20.5
2019-04-30T13:54:59.225Z,19.3
2019-04-30T13:59:46.313Z,19.1
2019-04-30T14:04:33.657Z,18.9
2019-04-30T14:09:21.152Z,19.5
2019-04-30T14:14:08.944Z,18.8
2019-04-30T14:18:56.196Z,18.7
2019-04-30T14:23:43.091Z,17.6
2019-04-30T14:28:30.699Z,18.1
2019-04-30T14:33:26.321Z,18.2
2019-04-30T14:38:13.819Z,17.3
2019-04-30T14:43:02.516Z,17.3
2019-04-30T14:47:51.846Z,18.2
2019-04-30T14:52:40.404Z,17.6
2019-04-30T14:57:27.808Z,19.4
2019-04-30T15:02:14.821Z,19.5
2019-04-30T15:07:01.889Z,19.2
2019-04-30T15:11:49.695Z,18.1
2019-04-30T15:16:38.835Z,18.4
2019-04-30T15:21:26.057Z,17.6
2019-04-30T15:26:22.205Z,16.6
2019-04-30T15:31:12.802Z,16.5
2019-04-30T15:35:59.982Z,15.4
2019-04-30T15:40:47.389Z,15.5
2019-04-30T15:45:35.013Z,15.8
2019-04-30T15:50:21.931Z,14.2
2019-04-30T15:55:12.271Z,14.5
2019-04-30T16:00:01.440Z,13.8
2019-04-30T16:04:49.203Z,14.5
2019-04-30T16:09:38.459Z,15.2
2019-04-30T16:14:26.333Z,13.9
2019-04-30T16:19:14.371Z,13.7
2019-04-30T16:24:01.537Z,14.2
2019-04-30T16:28:50.566Z,14.3
2019-04-30T16:33:39.362Z,15
2019-04-30T16:38:28.849Z,14.8
2019-04-30T16:43:16.093Z,14.7
2019-04-30T16:48:03.451Z,15.3
2019-04-30T16:52:51.038Z,16.1
2019-04-30T16:57:39.692Z,16
2019-04-30T17:02:27.071Z,16.8
2019-04-30T17:07:15.778Z,18.9
2019-04-30T17:12:03.768Z,21.9
2019-04-30T17:16:56.172Z,20.9
2019-04-30T17:21:43.312Z,22.2
2019-04-30T17:26:31.095Z,23.9
2019-04-30T17:31:17.950Z,25.6
2019-04-30T17:36:08.712Z,29.6
2019-04-30T17:40:58.399Z,32.5
2019-04-30T17:45:45.223Z,31.2
2019-04-30T17:50:32.278Z,31
2019-04-30T17:55:19.571Z,29.4
2019-04-30T18:00:16.979Z,32.6
2019-04-30T18:05:06.593Z,32.1
2019-04-30T18:09:54.432Z,33.1
2019-04-30T18:14:42.134Z,34.5
2019-04-30T18:19:29.507Z,33.2
2019-04-30T18:24:19.503Z,33.9
2019-04-30T18:29:06.459Z,35.4
2019-04-30T18:33:55.856Z,36.6
2019-04-30T18:38:43.075Z,36.4
2019-04-30T18:43:29.948Z,36.4
2019-04-30T18:48:16.922Z,38.6
2019-04-30T18:53:04.260Z,37.4
2019-04-30T18:57:56.874Z,38.3
2019-04-30T19:02:43.932Z,38
2019-04-30T19:07:31.680Z,40.1
2019-04-30T19:12:19.414Z,38.5
2019-04-30T19:17:06.961Z,39
2019-04-30T19:21:53.846Z,40.2
2019-04-30T19:26:40.608Z,39.4
2019-04-30T19:31:30.243Z,38.8
2019-04-30T19:36:20.329Z,40
2019-04-30T19:41:10.838Z,40
2019-04-30T19:45:59.176Z,40.3
2019-04-30T19:50:48.844Z,40.6
2019-04-30T19:55:35.866Z,40.3
2019-04-30T20:00:23.164Z,41.1
2019-04-30T20:05:10.314Z,40.5
2019-04-30T20:10:03.536Z,41.1
2019-04-30T20:14:51.318Z,41.3
2019-04-30T20:19:38.814Z,41.9
2019-04-30T20:24:26.528Z,42.3
2019-04-30T20:29:13.428Z,43.1
2019-04-30T20:34:01.427Z,43.3
2019-04-30T20:38:48.840Z,43.1
2019-04-30T20:43:35.914Z,43.3
2019-04-30T20:48:22.655Z,43.3
2019-04-30T20:53:10.767Z,44.1
2019-04-30T20:57:59.453Z,44.8
2019-04-30T21:02:48.572Z,45.1
2019-04-30T21:07:35.626Z,44.7
2019-04-30T21:12:22.564Z,45.2
2019-04-30T21:17:09.635Z,46
2019-04-30T21:21:56.394Z,46.2
2019-04-30T21:26:43.459Z,46
2019-04-30T21:31:30.281Z,46.7
2019-04-30T21:36:18.935Z,46.6
2019-04-30T21:41:06.379Z,46.7
2019-04-30T21:45:54.522Z,48.2
2019-04-30T21:50:41.733Z,47.7
2019-04-30T21:55:29.584Z,48.3
2019-04-30T22:00:18.456Z,49.8
2019-04-30T22:05:05.601Z,48.5
2019-04-30T22:09:54.316Z,49
2019-04-30T22:14:41.362Z,49
2019-04-30T22:19:28.378Z,48.8
2019-04-30T22:24:15.741Z,49.7
2019-04-30T22:29:03.412Z,49.3
2019-04-30T22:33:51.885Z,51.4
2019-04-30T22:38:39.106Z,50.7
2019-04-30T22:43:26.065Z,50.8
2019-04-30T22:48:13.095Z,50.3
2019-04-30T22:52:59.915Z,52.1
2019-04-30T22:57:47.560Z,51
2019-04-30T23:02:34.829Z,51.2
2019-04-30T23:07:21.626Z,51.7
2019-04-30T23:12:14.318Z,51.2
2019-04-30T23:17:01.822Z,52.2
2019-04-30T23:21:48.683Z,52.3
2019-04-30T23:26:35.462Z,52.1
2019-04-30T23:31:22.508Z,52.5
2019-04-30T23:36:11.251Z,52.8
2019-04-30T23:41:00.784Z,55.1
2019-04-30T23:45:47.951Z,55.8
2019-04-30T23:50:35.211Z,56.2
2019-04-30T23:55:24.106Z,55.5
